sensor_id;sensor_type;location;lat;lon;timestamp;temperature;humidity
8172;DHT22;4127;47.908;10.850;2023-03-14T00:00:53;9.40;99.90
8172;DHT22;4127;47.908;10.850;2023-03-14T00:03:20;9.40;99.90
8172;DHT22;4127;47.908;10.850;2023-03-14T00:05:47;9.40;99.90
8172;DHT22;4127;47.908;10.850;2023-03-14T00:08:14;9.50;99.90
8172;DHT22;4127;47.908;10.850;2023-03-14T00:10:41;9.60;99.90
8172;DHT22;4127;47.908;10.850;2023-03-14T00:13:07;9.60;99.90
8172;DHT22;4127;47.908;10.850;2023-03-14T00:15:34;9.60;99.90
8172;DHT22;4127;47.908;10.850;2023-03-14T00:18:01;9.70;99.90
8172;DHT22;4127;47.908;10.850;2023-03-14T00:20:28;9.60;99.90
8172;DHT22;4127;47.908;10.850;2023-03-14T00:22:55;9.60;99.90
8172;DHT22;4127;47.908;10.850;2023-03-14T00:25:22;9.40;99.90
8172;DHT22;4127;47.908;10.850;2023-03-14T00:27:50;9.40;99.90
8172;DHT22;4127;47.908;10.850;2023-03-14T00:30:18;9.30;99.90
8172;DHT22;4127;47.908;10.850;2023-03-14T00:32:45;9.30;99.90
8172;DHT22;4127;47.908;10.850;2023-03-14T00:35:12;9.40;99.90
8172;DHT22;4127;47.908;10.850;2023-03-14T00:37:38;9.40;99.90
8172;DHT22;4127;47.908;10.850;2023-03-14T00:40:06;9.30;99.90
8172;DHT22;4127;47.908;10.850;2023-03-14T00:42:34;9.20;99.90
8172;DHT22;4127;47.908;10.850;2023-03-14T00:45:01;9.10;99.90
8172;DHT22;4127;47.908;10.850;2023-03-14T00:47:28;9.10;99.90
8172;DHT22;4127;47.908;10.850;2023-03-14T00:49:55;9.00;99.90
8172;DHT22;4127;47.908;10.850;2023-03-14T00:52:21;8.90;99.90
8172;DHT22;4127;47.908;10.850;2023-03-14T00:54:48;9.00;99.90
8172;DHT22;4127;47.908;10.850;2023-03-14T13:02:27;9.30;99.90
8172;DHT22;4127;47.908;10.850;2023-03-14T13:05:16;9.20;99.90
8172;DHT22;4127;47.908;10.850;2023-03-14T13:10:24;8.50;99.90
8172;DHT22;4127;47.908;10.850;2023-03-14T13:15:33;8.10;99.90
8172;DHT22;4127;47.908;10.850;2023-03-14T13:18:10;8.00;99.90
8172;DHT22;4127;47.908;10.850;2023-03-14T13:20:44;7.90;99.90
8172;DHT22;4127;47.908;10.850;2023-03-14T13:23:25;7.80;99.90
8172;DHT22;4127;47.908;10.850;2023-03-14T13:25:52;7.80;99.90
8172;DHT22;4127;47.908;10.850;2023-03-14T13:28:20;7.70;99.90
8172;DHT22;4127;47.908;10.850;2023-03-14T13:30:54;7.70;99.90
8172;DHT22;4127;47.908;10.850;2023-03-14T13:33:22;7.70;99.90
8172;DHT22;4127;47.908;10.850;2023-03-14T13:35:58;7.70;99.90
8172;DHT22;4127;47.908;10.850;2023-03-14T13:38:34;7.60;99.90
8172;DHT22;4127;47.908;10.850;2023-03-14T13:41:06;7.60;99.90
8172;DHT22;4127;47.908;10.850;2023-03-14T13:43:39;7.50;99.90
8172;DHT22;4127;47.908;10.850;2023-03-14T13:46:16;7.40;99.90
8172;DHT22;4127;47.908;10.850;2023-03-14T13:48:49;7.30;99.90
8172;DHT22;4127;47.908;10.850;2023-03-14T13:51:18;7.20;99.90
8172;DHT22;4127;47.908;10.850;2023-03-14T13:53:47;7.10;99.90
8172;DHT22;4127;47.908;10.850;2023-03-14T13:56:19;6.90;99.90
8172;DHT22;4127;47.908;10.850;2023-03-14T13:58:47;6.80;99.90
8172;DHT22;4127;47.908;10.850;2023-03-14T14:01:19;6.60;99.90
8172;DHT22;4127;47.908;10.850;2023-03-14T14:03:52;6.60;99.90
8172;DHT22;4127;47.908;10.850;2023-03-14T14:06:28;6.50;99.90
8172;DHT22;4127;47.908;10.850;2023-03-14T14:08:56;6.40;99.90
8172;DHT22;4127;47.908;10.850;2023-03-14T14:11:40;6.30;99.90
8172;DHT22;4127;47.908;10.850;2023-03-14T14:16:57;6.10;99.90
8172;DHT22;4127;47.908;10.850;2023-03-14T14:19:27;6.00;99.90
8172;DHT22;4127;47.908;10.850;2023-03-14T14:21:55;6.10;99.90
8172;DHT22;4127;47.908;10.850;2023-03-14T14:24:25;6.00;99.90
8172;DHT22;4127;47.908;10.850;2023-03-14T14:26:59;6.10;99.90
8172;DHT22;4127;47.908;10.850;2023-03-14T14:29:30;6.00;99.90
8172;DHT22;4127;47.908;10.850;2023-03-14T14:34:57;6.00;99.90
8172;DHT22;4127;47.908;10.850;2023-03-14T14:37:40;6.10;99.90
8172;DHT22;4127;47.908;10.850;2023-03-14T14:42:40;6.20;99.90
8172;DHT22;4127;47.908;10.850;2023-03-14T14:45:13;6.20;99.90
8172;DHT22;4127;47.908;10.850;2023-03-14T14:47:54;6.10;99.90
8172;DHT22;4127;47.908;10.850;2023-03-14T14:50:33;6.00;99.90
8172;DHT22;4127;47.908;10.850;2023-03-14T14:53:18;6.00;99.90
8172;DHT22;4127;47.908;10.850;2023-03-14T14:55:50;6.00;99.90
8172;DHT22;4127;47.908;10.850;2023-03-14T14:58:22;6.00;99.90
8172;DHT22;4127;47.908;10.850;2023-03-14T15:01:14;6.00;99.90
8172;DHT22;4127;47.908;10.850;2023-03-14T15:03:43;5.70;99.90
8172;DHT22;4127;47.908;10.850;2023-03-14T15:06:15;5.50;99.90
8172;DHT22;4127;47.908;10.850;2023-03-14T15:08:43;5.40;99.90
8172;DHT22;4127;47.908;10.850;2023-03-14T15:11:22;5.20;99.90
8172;DHT22;4127;47.908;10.850;2023-03-14T15:13:50;5.10;99.90
8172;DHT22;4127;47.908;10.850;2023-03-14T15:16:19;5.10;99.90
8172;DHT22;4127;47.908;10.850;2023-03-14T15:18:54;5.10;99.90
8172;DHT22;4127;47.908;10.850;2023-03-14T15:21:26;5.10;99.90
8172;DHT22;4127;47.908;10.850;2023-03-14T15:23:54;5.20;99.90
8172;DHT22;4127;47.908;10.850;2023-03-14T15:26:26;5.20;99.90
8172;DHT22;4127;47.908;10.850;2023-03-14T15:28:53;5.30;99.90
8172;DHT22;4127;47.908;10.850;2023-03-14T15:31:20;5.30;99.90
8172;DHT22;4127;47.908;10.850;2023-03-14T15:33:50;5.30;99.90
8172;DHT22;4127;47.908;10.850;2023-03-14T15:38:52;5.30;99.90
8172;DHT22;4127;47.908;10.850;2023-03-14T15:41:19;5.30;99.90
8172;DHT22;4127;47.908;10.850;2023-03-14T15:43:46;5.40;99.90
8172;DHT22;4127;47.908;10.850;2023-03-14T15:46:14;5.50;99.90
8172;DHT22;4127;47.908;10.850;2023-03-14T15:48:41;5.60;99.90
8172;DHT22;4127;47.908;10.850;2023-03-14T15:51:08;5.60;99.90
8172;DHT22;4127;47.908;10.850;2023-03-14T15:53:34;5.70;99.90
8172;DHT22;4127;47.908;10.850;2023-03-14T15:56:09;5.60;99.90
8172;DHT22;4127;47.908;10.850;2023-03-14T15:58:37;5.60;99.90
8172;DHT22;4127;47.908;10.850;2023-03-14T16:01:07;5.60;99.90
8172;DHT22;4127;47.908;10.850;2023-03-14T16:03:38;5.60;99.90
8172;DHT22;4127;47.908;10.850;2023-03-14T16:06:05;5.50;99.90
8172;DHT22;4127;47.908;10.850;2023-03-14T16:08:31;5.50;99.90
8172;DHT22;4127;47.908;10.850;2023-03-14T16:10:59;5.40;99.90
8172;DHT22;4127;47.908;10.850;2023-03-14T16:13:26;5.50;99.90
8172;DHT22;4127;47.908;10.850;2023-03-14T16:15:54;5.50;99.90
8172;DHT22;4127;47.908;10.850;2023-03-14T16:18:21;5.50;99.90
8172;DHT22;4127;47.908;10.850;2023-03-14T16:20:56;5.50;99.90
8172;DHT22;4127;47.908;10.850;2023-03-14T16:23:24;5.40;99.90
8172;DHT22;4127;47.908;10.850;2023-03-14T16:25:52;5.30;99.90
8172;DHT22;4127;47.908;10.850;2023-03-14T16:28:20;5.10;99.90
8172;DHT22;4127;47.908;10.850;2023-03-14T16:30:47;4.90;99.90
8172;DHT22;4127;47.908;10.850;2023-03-14T16:33:15;4.70;99.90
8172;DHT22;4127;47.908;10.850;2023-03-14T16:35:56;4.50;99.90
8172;DHT22;4127;47.908;10.850;2023-03-14T16:38:23;4.50;99.90
8172;DHT22;4127;47.908;10.850;2023-03-14T16:40:58;4.50;99.90
8172;DHT22;4127;47.908;10.850;2023-03-14T16:43:26;4.50;99.90
8172;DHT22;4127;47.908;10.850;2023-03-14T16:45:53;4.60;99.90
8172;DHT22;4127;47.908;10.850;2023-03-14T16:48:20;4.60;99.90
8172;DHT22;4127;47.908;10.850;2023-03-14T16:50:49;4.60;99.90
8172;DHT22;4127;47.908;10.850;2023-03-14T16:53:17;4.60;99.90
8172;DHT22;4127;47.908;10.850;2023-03-14T16:55:44;4.60;99.90
8172;DHT22;4127;47.908;10.850;2023-03-14T16:58:11;4.50;99.90
8172;DHT22;4127;47.908;10.850;2023-03-14T17:00:38;4.50;99.90
8172;DHT22;4127;47.908;10.850;2023-03-14T17:03:05;4.60;99.90
8172;DHT22;4127;47.908;10.850;2023-03-14T17:05:32;4.60;99.90
8172;DHT22;4127;47.908;10.850;2023-03-14T17:07:59;4.60;99.90
8172;DHT22;4127;47.908;10.850;2023-03-14T17:10:26;4.60;99.90
8172;DHT22;4127;47.908;10.850;2023-03-14T17:12:52;4.50;99.90
8172;DHT22;4127;47.908;10.850;2023-03-14T17:15:19;4.60;99.90
8172;DHT22;4127;47.908;10.850;2023-03-14T17:17:46;4.60;99.90
8172;DHT22;4127;47.908;10.850;2023-03-14T17:20:13;4.60;99.90
8172;DHT22;4127;47.908;10.850;2023-03-14T17:22:39;4.60;99.90
8172;DHT22;4127;47.908;10.850;2023-03-14T17:25:06;4.60;99.90
8172;DHT22;4127;47.908;10.850;2023-03-14T17:27:33;4.50;99.90
8172;DHT22;4127;47.908;10.850;2023-03-14T17:30:03;4.60;99.90
8172;DHT22;4127;47.908;10.850;2023-03-14T17:32:30;4.50;99.90
8172;DHT22;4127;47.908;10.850;2023-03-14T17:34:56;4.40;99.90
8172;DHT22;4127;47.908;10.850;2023-03-14T17:37:23;4.40;99.90
8172;DHT22;4127;47.908;10.850;2023-03-14T17:39:50;4.50;99.90
8172;DHT22;4127;47.908;10.850;2023-03-14T17:42:17;4.60;99.90
8172;DHT22;4127;47.908;10.850;2023-03-14T17:44:43;4.40;99.90
8172;DHT22;4127;47.908;10.850;2023-03-14T17:47:11;4.30;99.90
8172;DHT22;4127;47.908;10.850;2023-03-14T17:49:38;4.40;99.90
8172;DHT22;4127;47.908;10.850;2023-03-14T17:52:06;4.20;99.90
8172;DHT22;4127;47.908;10.850;2023-03-14T17:54:34;4.30;99.90
8172;DHT22;4127;47.908;10.850;2023-03-14T17:57:00;4.20;99.90
8172;DHT22;4127;47.908;10.850;2023-03-14T17:59:27;4.20;99.90
8172;DHT22;4127;47.908;10.850;2023-03-14T18:01:54;4.10;99.90
8172;DHT22;4127;47.908;10.850;2023-03-14T18:04:21;4.10;99.90
8172;DHT22;4127;47.908;10.850;2023-03-14T18:06:48;4.00;99.90
8172;DHT22;4127;47.908;10.850;2023-03-14T18:09:14;4.00;99.90
8172;DHT22;4127;47.908;10.850;2023-03-14T18:11:41;4.00;99.90
8172;DHT22;4127;47.908;10.850;2023-03-14T18:14:08;3.90;99.90
8172;DHT22;4127;47.908;10.850;2023-03-14T18:16:36;3.90;99.90
8172;DHT22;4127;47.908;10.850;2023-03-14T18:19:03;3.80;99.90
8172;DHT22;4127;47.908;10.850;2023-03-14T18:21:30;3.70;99.90
8172;DHT22;4127;47.908;10.850;2023-03-14T18:23:57;3.70;99.90
8172;DHT22;4127;47.908;10.850;2023-03-14T18:26:24;3.70;99.90
8172;DHT22;4127;47.908;10.850;2023-03-14T18:28:51;3.60;99.90
8172;DHT22;4127;47.908;10.850;2023-03-14T18:31:17;3.60;99.90
8172;DHT22;4127;47.908;10.850;2023-03-14T18:33:48;3.60;99.90
8172;DHT22;4127;47.908;10.850;2023-03-14T18:36:15;3.70;99.90
8172;DHT22;4127;47.908;10.850;2023-03-14T18:38:42;3.60;99.90
8172;DHT22;4127;47.908;10.850;2023-03-14T18:41:12;3.60;99.90
8172;DHT22;4127;47.908;10.850;2023-03-14T18:43:40;3.60;99.90
8172;DHT22;4127;47.908;10.850;2023-03-14T18:46:07;3.70;99.90
8172;DHT22;4127;47.908;10.850;2023-03-14T18:48:34;3.70;99.90
8172;DHT22;4127;47.908;10.850;2023-03-14T18:51:09;3.70;99.90
8172;DHT22;4127;47.908;10.850;2023-03-14T18:53:44;3.80;99.90
8172;DHT22;4127;47.908;10.850;2023-03-14T18:56:11;3.80;99.90
8172;DHT22;4127;47.908;10.850;2023-03-14T18:58:40;3.80;99.90
8172;DHT22;4127;47.908;10.850;2023-03-14T19:01:06;3.80;99.90
8172;DHT22;4127;47.908;10.850;2023-03-14T19:03:34;3.80;99.90
8172;DHT22;4127;47.908;10.850;2023-03-14T19:06:05;3.90;99.90
8172;DHT22;4127;47.908;10.850;2023-03-14T19:08:34;3.90;99.90
8172;DHT22;4127;47.908;10.850;2023-03-14T19:11:05;4.00;99.90
8172;DHT22;4127;47.908;10.850;2023-03-14T19:13:33;4.00;99.90
